Hjaltland — VSTY8 — position and weather

sailwx.info

Track history (hours):
 
Tides and Currents Weather Stations Pressure Air Temp Water Temp Dewpoint Dewpoint Depression Visibility Wind Speed Wind Dir Waves Ship Positions

Hjaltland

Operator: NorthLink Orkey & Shetland Ferries Ltd

Last reported at 2017-May-26 10:59 UTC. Time now 2017-May-26 16:47 UTC.
Position N 57°09' W 002°05'.

Type: Passenger vessel. MMSI: 235450000.

Date/timePositionNaut miles runAvg speedWind from/ knotsBaromVisibWave heightAir tempDewpointWater temp
2017-May-26 10:59N 57°09' W 002°05'0 0.0
2017-May-26 10:29N 57°09' W 002°05'0 0.0
2017-May-26 09:59N 57°09' W 002°05'0 0.0
2017-May-26 09:29N 57°09' W 002°05'0 0.0
2017-May-26 08:59N 57°09' W 002°05'0 0.0
2017-May-26 08:29N 57°09' W 002°05'0 0.0
2017-May-26 07:59N 57°09' W 002°05'0 0.0
2017-May-26 07:29N 57°09' W 002°05'0 0.0
2017-May-26 06:59N 57°09' W 002°05'0 0.0
2017-May-26 06:29N 57°09' W 002°05'0 0.0
2017-May-26 05:59N 57°09' W 002°05'1 1.4
2017-May-26 05:30N 57°08' W 002°04'613.0
2017-May-26 05:01N 57°13' W 001°56'1313.1
2017-May-26 04:01N 57°24' W 001°44'111.8
2017-May-26 03:57N 57°25' W 001°43'612.0
2017-May-26 03:29N 57°30' W 001°38'6 0.2
2017-May-24 19:43N 57°36' W 001°37'419.2
2017-May-24 19:30N 57°32' W 001°37'1318.9
2017-May-24 18:50N 57°20' W 001°46'620.2
2017-May-24 18:30N 57°15' W 001°53'917.3
2017-May-24 18:01N 57°09' W 002°04'1 1.6
2017-May-24 17:28N 57°09' W 002°05'0 0.0
2017-May-24 16:58N 57°09' W 002°05'0 0.0
2017-May-24 16:28N 57°09' W 002°05'0 0.0
2017-May-24 15:58N 57°09' W 002°05'0 0.0
2017-May-24 15:28N 57°09' W 002°05'0 0.0
2017-May-24 14:58N 57°09' W 002°05'0 0.0
2017-May-24 14:28N 57°09' W 002°05'0 0.0
2017-May-24 13:28N 57°09' W 002°05'0 0.0
2017-May-24 12:58N 57°09' W 002°05'0 0.0
2017-May-24 12:28N 57°09' W 002°05'0 0.0
2017-May-24 11:58N 57°09' W 002°05'0 0.0
2017-May-24 11:28N 57°09' W 002°05'0 0.0
2017-May-24 10:58N 57°09' W 002°05'0 0.0
2017-May-24 10:28N 57°09' W 002°05'0 0.0
2017-May-24 09:58N 57°09' W 002°05'0 0.0
2017-May-24 09:28N 57°09' W 002°05'0 0.0
2017-May-24 08:58N 57°09' W 002°05'0 0.0
2017-May-24 08:28N 57°09' W 002°05'0 0.0
2017-May-24 07:58N 57°09' W 002°05'0 0.0
2017-May-24 07:28N 57°09' W 002°05'0 0.0
2017-May-24 06:58N 57°09' W 002°05'0 0.0
2017-May-24 06:28N 57°09' W 002°05'0 0.0
2017-May-24 06:00N 57°09' W 002°05'1 1.3
2017-May-24 05:30N 57°08' W 002°04'613.0
2017-May-24 05:01N 57°13' W 001°56'813.0
2017-May-24 04:24N 57°20' W 001°48'612.5
2017-May-24 03:54N 57°25' W 001°41'512.2
2017-May-24 03:29N 57°30' W 001°37'613.2
2017-May-24 03:00N 57°36' W 001°37'16 0.5
2017-May-22 21:14N 57°52' W 001°37'615.3
2017-May-22 20:49N 57°45' W 001°37'515.5
2017-May-22 20:29N 57°40' W 001°37'815.4
2017-May-22 20:00N 57°33' W 001°37'715.1
2017-May-22 19:30N 57°26' W 001°40'912.6
2017-May-22 18:48N 57°18' W 001°49'413.5
2017-May-22 18:31N 57°15' W 001°54'714.0
2017-May-22 18:00N 57°10' W 002°02'2 4.2
2017-May-22 17:29N 57°09' W 002°05'0 0.0
2017-May-22 16:59N 57°09' W 002°05'0 0.0
2017-May-22 16:29N 57°09' W 002°05'0 0.0
2017-May-22 15:59N 57°09' W 002°05'0 0.0
2017-May-22 15:29N 57°09' W 002°05'0 0.0
2017-May-22 14:59N 57°09' W 002°05'0 0.0
2017-May-22 13:59N 57°09' W 002°05'0 0.0
2017-May-22 13:29N 57°09' W 002°05'0 0.0
2017-May-22 12:59N 57°09' W 002°05'0 0.0
2017-May-22 12:29N 57°09' W 002°05'0 0.0
2017-May-22 11:59N 57°09' W 002°05'0 0.0
2017-May-22 11:29N 57°09' W 002°05'0 0.0
2017-May-22 10:59N 57°09' W 002°05'0 0.0
2017-May-22 10:29N 57°09' W 002°05'0 0.0
2017-May-22 09:59N 57°09' W 002°05'0 0.0
2017-May-22 09:29N 57°09' W 002°05'0 0.0
2017-May-22 08:59N 57°09' W 002°05'0 0.0
2017-May-22 08:29N 57°09' W 002°05'0 0.0
2017-May-22 07:59N 57°09' W 002°05'0 0.0
2017-May-22 07:29N 57°09' W 002°05'0 0.0
2017-May-22 06:59N 57°09' W 002°05'0 0.0
2017-May-22 06:29N 57°09' W 002°05'0 0.0
2017-May-22 05:59N 57°09' W 002°05'0 1.0
2017-May-22 05:31N 57°09' W 002°05'611.4
2017-May-22 05:00N 57°12' W 001°57'815.9
2017-May-22 04:30N 57°19' W 001°48'815.7
2017-May-22 04:00N 57°25' W 001°40'612.4
2017-May-22 03:29N 57°32' W 001°37'712.1
2017-May-22 02:52N 57°39' W 001°37'89 3.4
2017-May-21 00:39N 59°04' W 002°27'213.7
2017-May-21 00:30N 59°03' W 002°29'611.7
2017-May-21 00:00N 59°01' W 002°40'612.8
2017-May-20 23:30N 59°01' W 002°52'3 2.5
2017-May-20 22:13N 58°60' W 002°58'1 6.0
2017-May-20 22:01N 59°01' W 002°57'1121.2
2017-May-20 21:30N 58°57' W 002°38'6922.4
2017-May-20 18:26N 57°53' W 001°49'922.4
2017-May-20 18:00N 57°44' W 001°43'1121.7
2017-May-20 17:30N 57°33' W 001°42'1019.4
2017-May-20 17:00N 57°24' W 001°46'1220.5
2017-May-20 16:24N 57°13' W 001°58'614.5
2017-May-20 16:00N 57°09' W 002°05'0 0.8
2017-May-20 15:29N 57°09' W 002°05'0 0.0
2017-May-20 14:59N 57°09' W 002°05'0 0.0
2017-May-20 13:59N 57°09' W 002°05'0 0.0
2017-May-20 13:29N 57°09' W 002°05'0 0.0
2017-May-20 12:59N 57°09' W 002°05'0 0.0
2017-May-20 12:29N 57°09' W 002°05'0 0.0
2017-May-20 11:59N 57°09' W 002°05'0 0.0
2017-May-20 11:29N 57°09' W 002°05'0 0.0
2017-May-20 10:59N 57°09' W 002°05'0 0.0
2017-May-20 10:29N 57°09' W 002°05'0 0.0
2017-May-20 09:59N 57°09' W 002°05'0 0.0
2017-May-20 09:29N 57°09' W 002°05'0 0.0
2017-May-20 08:59N 57°09' W 002°05'0 0.0
2017-May-20 08:29N 57°09' W 002°05'0 0.0
2017-May-20 07:59N 57°09' W 002°05'0 0.0
2017-May-20 07:29N 57°09' W 002°05'0 0.0
2017-May-20 06:59N 57°09' W 002°05'0 0.0
2017-May-20 06:29N 57°09' W 002°05'0 0.0
2017-May-20 05:59N 57°09' W 002°05'1 1.6
2017-May-20 05:30N 57°09' W 002°04'611.5
2017-May-20 05:01N 57°13' W 001°57'1522.3
2017-May-20 04:21N 57°25' W 001°41'721.8
2017-May-20 04:00N 57°32' W 001°38'1522.6
2017-May-20 03:20N 57°47' W 001°45'7521.2
2017-May-19 23:47N 58°57' W 002°38'518.7
2017-May-19 23:30N 59°00' W 002°46'612.8
2017-May-19 23:00N 58°60' W 002°58'0 0.1
2017-May-19 21:42N 58°60' W 002°58'1 4.1
2017-May-19 21:30N 59°01' W 002°58'917.6
2017-May-19 21:00N 59°01' W 002°40'9 0.4
2017-May-19 00:47N 59°05' W 002°26'413.1
2017-May-19 00:30N 59°02' W 002°30'612.2
2017-May-19 00:00N 59°00' W 002°42'714.3
2017-May-18 23:30N 59°01' W 002°56'2 1.3
2017-May-18 21:59N 58°60' W 002°58'612.4
2017-May-18 21:30N 59°00' W 002°47'1122.2
2017-May-18 21:00N 58°51' W 002°34'2623.5
2017-May-18 19:55N 58°28' W 002°15'1123.2
2017-May-18 19:26N 58°17' W 002°08'2623.2
2017-May-18 18:18N 57°53' W 001°50'723.1
2017-May-18 18:00N 57°46' W 001°45'1222.2
2017-May-18 17:29N 57°35' W 001°39'1621.2
2017-May-18 16:43N 57°20' W 001°50'421.7
2017-May-18 16:31N 57°16' W 001°54'918.8
2017-May-18 16:01N 57°08' W 002°04'1 1.3
2017-May-18 15:30N 57°09' W 002°05'0 0.0
2017-May-18 15:00N 57°09' W 002°05'0 0.0
2017-May-18 14:00N 57°09' W 002°05'0 0.0
2017-May-18 13:30N 57°09' W 002°05'0 0.0
2017-May-18 13:00N 57°09' W 002°05'0 0.0
2017-May-18 12:30N 57°09' W 002°05'0 0.0
2017-May-18 12:00N 57°09' W 002°05'0 0.0
2017-May-18 11:30N 57°09' W 002°05'0 0.0
2017-May-18 11:00N 57°09' W 002°05'0 0.0
2017-May-18 10:30N 57°09' W 002°05'0 0.0
2017-May-18 10:00N 57°09' W 002°05'0 0.0
2017-May-18 09:30N 57°09' W 002°05'0 0.0
2017-May-18 09:00N 57°09' W 002°05'0 0.0
2017-May-18 08:30N 57°09' W 002°05'0 0.0
2017-May-18 08:00N 57°09' W 002°05'0 0.0
2017-May-18 07:30N 57°09' W 002°05'0 0.0
2017-May-18 07:00N 57°09' W 002°05'0 0.0
2017-May-18 06:30N 57°09' W 002°05'0 0.0
2017-May-18 06:00N 57°09' W 002°05'1 1.5
2017-May-18 05:30N 57°09' W 002°04'611.5
2017-May-18 05:00N 57°13' W 001°57'814.9
2017-May-18 04:27N 57°19' W 001°48'2017.7
2017-May-18 03:20N 57°39' W 001°41'1323.7
2017-May-18 02:47N 57°51' W 001°50'5823.3
2017-May-18 00:18N 58°45' W 002°29'923.0
2017-May-17 23:54N 58°54' W 002°35'821.5
2017-May-17 23:30N 58°60' W 002°46'713.0
2017-May-17 23:00N 58°60' W 002°58'0 0.0
2017-May-17 21:35N 58°60' W 002°58'0 0.7
2017-May-17 21:30N 58°60' W 002°58'714.3
2017-May-17 21:00N 59°00' W 002°45'10 0.5
2017-May-17 00:58N 59°04' W 002°27'612.2
2017-May-17 00:26N 59°00' W 002°37'614.0
2017-May-17 00:00N 59°00' W 002°48'5 2.8
2017-May-16 22:10N 58°60' W 002°58'1 8.0
2017-May-16 22:00N 59°01' W 002°57'1020.1
2017-May-16 21:30N 58°58' W 002°39'7423.1
2017-May-16 18:20N 57°49' W 001°50'722.6
2017-May-16 18:01N 57°42' W 001°45'2321.3
2017-May-16 16:57N 57°20' W 001°48'1022.4
2017-May-16 16:31N 57°12' W 001°59'5 9.4
2017-May-16 16:00N 57°09' W 002°05'0 0.0
2017-May-16 15:28N 57°09' W 002°05'0 0.0
2017-May-16 15:00N 57°09' W 002°05'0 0.0
2017-May-16 14:30N 57°09' W 002°05'0 0.0
2017-May-16 13:30N 57°09' W 002°05'0 0.0
2017-May-16 13:00N 57°09' W 002°05'0 0.0
2017-May-16 12:30N 57°09' W 002°05'0 0.0
2017-May-16 12:00N 57°09' W 002°05'0 0.0
2017-May-16 11:30N 57°09' W 002°05'0 0.0
2017-May-16 11:00N 57°09' W 002°05'  
Track history (hours):
 
Tides and Currents Weather Stations Pressure Air Temp Water Temp Dewpoint Dewpoint Depression Visibility Wind Speed Wind Dir Waves Ship Positions

Hjaltland

Operator: NorthLink Orkey & Shetland Ferries Ltd

Last reported at 2017-May-26 10:59 UTC. Time now 2017-May-26 16:47 UTC.
Position N 57°09' W 002°05'.

Type: Passenger vessel. MMSI: 235450000.

Date/timePositionNaut miles runAvg speedWind from/ knotsBaromVisibWave heightAir tempDewpointWater temp
2017-May-26 10:59N 57°09' W 002°05'0 0.0
2017-May-26 10:29N 57°09' W 002°05'0 0.0
2017-May-26 09:59N 57°09' W 002°05'0 0.0
2017-May-26 09:29N 57°09' W 002°05'0 0.0
2017-May-26 08:59N 57°09' W 002°05'0 0.0
2017-May-26 08:29N 57°09' W 002°05'0 0.0
2017-May-26 07:59N 57°09' W 002°05'0 0.0
2017-May-26 07:29N 57°09' W 002°05'0 0.0
2017-May-26 06:59N 57°09' W 002°05'0 0.0
2017-May-26 06:29N 57°09' W 002°05'0 0.0
2017-May-26 05:59N 57°09' W 002°05'1 1.4
2017-May-26 05:30N 57°08' W 002°04'613.0
2017-May-26 05:01N 57°13' W 001°56'1313.1
2017-May-26 04:01N 57°24' W 001°44'111.8
2017-May-26 03:57N 57°25' W 001°43'612.0
2017-May-26 03:29N 57°30' W 001°38'6 0.2
2017-May-24 19:43N 57°36' W 001°37'419.2
2017-May-24 19:30N 57°32' W 001°37'1318.9
2017-May-24 18:50N 57°20' W 001°46'620.2
2017-May-24 18:30N 57°15' W 001°53'917.3
2017-May-24 18:01N 57°09' W 002°04'1 1.6
2017-May-24 17:28N 57°09' W 002°05'0 0.0
2017-May-24 16:58N 57°09' W 002°05'0 0.0
2017-May-24 16:28N 57°09' W 002°05'0 0.0
2017-May-24 15:58N 57°09' W 002°05'0 0.0
2017-May-24 15:28N 57°09' W 002°05'0 0.0
2017-May-24 14:58N 57°09' W 002°05'0 0.0
2017-May-24 14:28N 57°09' W 002°05'0 0.0
2017-May-24 13:28N 57°09' W 002°05'0 0.0
2017-May-24 12:58N 57°09' W 002°05'0 0.0
2017-May-24 12:28N 57°09' W 002°05'0 0.0
2017-May-24 11:58N 57°09' W 002°05'0 0.0
2017-May-24 11:28N 57°09' W 002°05'0 0.0
2017-May-24 10:58N 57°09' W 002°05'0 0.0
2017-May-24 10:28N 57°09' W 002°05'0 0.0
2017-May-24 09:58N 57°09' W 002°05'0 0.0
2017-May-24 09:28N 57°09' W 002°05'0 0.0
2017-May-24 08:58N 57°09' W 002°05'0 0.0
2017-May-24 08:28N 57°09' W 002°05'0 0.0
2017-May-24 07:58N 57°09' W 002°05'0 0.0
2017-May-24 07:28N 57°09' W 002°05'0 0.0
2017-May-24 06:58N 57°09' W 002°05'0 0.0
2017-May-24 06:28N 57°09' W 002°05'0 0.0
2017-May-24 06:00N 57°09' W 002°05'1 1.3
2017-May-24 05:30N 57°08' W 002°04'613.0
2017-May-24 05:01N 57°13' W 001°56'813.0
2017-May-24 04:24N 57°20' W 001°48'612.5
2017-May-24 03:54N 57°25' W 001°41'512.2
2017-May-24 03:29N 57°30' W 001°37'613.2
2017-May-24 03:00N 57°36' W 001°37'16 0.5
2017-May-22 21:14N 57°52' W 001°37'615.3
2017-May-22 20:49N 57°45' W 001°37'515.5
2017-May-22 20:29N 57°40' W 001°37'815.4
2017-May-22 20:00N 57°33' W 001°37'715.1
2017-May-22 19:30N 57°26' W 001°40'912.6
2017-May-22 18:48N 57°18' W 001°49'413.5
2017-May-22 18:31N 57°15' W 001°54'714.0
2017-May-22 18:00N 57°10' W 002°02'2 4.2
2017-May-22 17:29N 57°09' W 002°05'0 0.0
2017-May-22 16:59N 57°09' W 002°05'0 0.0
2017-May-22 16:29N 57°09' W 002°05'0 0.0
2017-May-22 15:59N 57°09' W 002°05'0 0.0
2017-May-22 15:29N 57°09' W 002°05'0 0.0
2017-May-22 14:59N 57°09' W 002°05'0 0.0
2017-May-22 13:59N 57°09' W 002°05'0 0.0
2017-May-22 13:29N 57°09' W 002°05'0 0.0
2017-May-22 12:59N 57°09' W 002°05'0 0.0
2017-May-22 12:29N 57°09' W 002°05'0 0.0
2017-May-22 11:59N 57°09' W 002°05'0 0.0
2017-May-22 11:29N 57°09' W 002°05'0 0.0
2017-May-22 10:59N 57°09' W 002°05'0 0.0
2017-May-22 10:29N 57°09' W 002°05'0 0.0
2017-May-22 09:59N 57°09' W 002°05'0 0.0
2017-May-22 09:29N 57°09' W 002°05'0 0.0
2017-May-22 08:59N 57°09' W 002°05'0 0.0
2017-May-22 08:29N 57°09' W 002°05'0 0.0
2017-May-22 07:59N 57°09' W 002°05'0 0.0
2017-May-22 07:29N 57°09' W 002°05'0 0.0
2017-May-22 06:59N 57°09' W 002°05'0 0.0
2017-May-22 06:29N 57°09' W 002°05'0 0.0
2017-May-22 05:59N 57°09' W 002°05'0 1.0
2017-May-22 05:31N 57°09' W 002°05'611.4
2017-May-22 05:00N 57°12' W 001°57'815.9
2017-May-22 04:30N 57°19' W 001°48'815.7
2017-May-22 04:00N 57°25' W 001°40'612.4
2017-May-22 03:29N 57°32' W 001°37'712.1
2017-May-22 02:52N 57°39' W 001°37'89 3.4
2017-May-21 00:39N 59°04' W 002°27'213.7
2017-May-21 00:30N 59°03' W 002°29'611.7
2017-May-21 00:00N 59°01' W 002°40'612.8
2017-May-20 23:30N 59°01' W 002°52'3 2.5
2017-May-20 22:13N 58°60' W 002°58'1 6.0
2017-May-20 22:01N 59°01' W 002°57'1121.2
2017-May-20 21:30N 58°57' W 002°38'6922.4
2017-May-20 18:26N 57°53' W 001°49'922.4
2017-May-20 18:00N 57°44' W 001°43'1121.7
2017-May-20 17:30N 57°33' W 001°42'1019.4
2017-May-20 17:00N 57°24' W 001°46'1220.5
2017-May-20 16:24N 57°13' W 001°58'614.5
2017-May-20 16:00N 57°09' W 002°05'0 0.8
2017-May-20 15:29N 57°09' W 002°05'0 0.0
2017-May-20 14:59N 57°09' W 002°05'0 0.0
2017-May-20 13:59N 57°09' W 002°05'0 0.0
2017-May-20 13:29N 57°09' W 002°05'0 0.0
2017-May-20 12:59N 57°09' W 002°05'0 0.0
2017-May-20 12:29N 57°09' W 002°05'0 0.0
2017-May-20 11:59N 57°09' W 002°05'0 0.0
2017-May-20 11:29N 57°09' W 002°05'0 0.0
2017-May-20 10:59N 57°09' W 002°05'0 0.0
2017-May-20 10:29N 57°09' W 002°05'0 0.0
2017-May-20 09:59N 57°09' W 002°05'0 0.0
2017-May-20 09:29N 57°09' W 002°05'0 0.0
2017-May-20 08:59N 57°09' W 002°05'0 0.0
2017-May-20 08:29N 57°09' W 002°05'0 0.0
2017-May-20 07:59N 57°09' W 002°05'0 0.0
2017-May-20 07:29N 57°09' W 002°05'0 0.0
2017-May-20 06:59N 57°09' W 002°05'0 0.0
2017-May-20 06:29N 57°09' W 002°05'0 0.0
2017-May-20 05:59N 57°09' W 002°05'1 1.6
2017-May-20 05:30N 57°09' W 002°04'611.5
2017-May-20 05:01N 57°13' W 001°57'1522.3
2017-May-20 04:21N 57°25' W 001°41'721.8
2017-May-20 04:00N 57°32' W 001°38'1522.6
2017-May-20 03:20N 57°47' W 001°45'7521.2
2017-May-19 23:47N 58°57' W 002°38'518.7
2017-May-19 23:30N 59°00' W 002°46'612.8
2017-May-19 23:00N 58°60' W 002°58'0 0.1
2017-May-19 21:42N 58°60' W 002°58'1 4.1
2017-May-19 21:30N 59°01' W 002°58'917.6
2017-May-19 21:00N 59°01' W 002°40'9 0.4
2017-May-19 00:47N 59°05' W 002°26'413.1
2017-May-19 00:30N 59°02' W 002°30'612.2
2017-May-19 00:00N 59°00' W 002°42'714.3
2017-May-18 23:30N 59°01' W 002°56'2 1.3
2017-May-18 21:59N 58°60' W 002°58'612.4
2017-May-18 21:30N 59°00' W 002°47'1122.2
2017-May-18 21:00N 58°51' W 002°34'2623.5
2017-May-18 19:55N 58°28' W 002°15'1123.2
2017-May-18 19:26N 58°17' W 002°08'2623.2
2017-May-18 18:18N 57°53' W 001°50'723.1
2017-May-18 18:00N 57°46' W 001°45'1222.2
2017-May-18 17:29N 57°35' W 001°39'1621.2
2017-May-18 16:43N 57°20' W 001°50'421.7
2017-May-18 16:31N 57°16' W 001°54'918.8
2017-May-18 16:01N 57°08' W 002°04'1 1.3
2017-May-18 15:30N 57°09' W 002°05'0 0.0
2017-May-18 15:00N 57°09' W 002°05'0 0.0
2017-May-18 14:00N 57°09' W 002°05'0 0.0
2017-May-18 13:30N 57°09' W 002°05'0 0.0
2017-May-18 13:00N 57°09' W 002°05'0 0.0
2017-May-18 12:30N 57°09' W 002°05'0 0.0
2017-May-18 12:00N 57°09' W 002°05'0 0.0
2017-May-18 11:30N 57°09' W 002°05'0 0.0
2017-May-18 11:00N 57°09' W 002°05'0 0.0
2017-May-18 10:30N 57°09' W 002°05'0 0.0
2017-May-18 10:00N 57°09' W 002°05'0 0.0
2017-May-18 09:30N 57°09' W 002°05'0 0.0
2017-May-18 09:00N 57°09' W 002°05'0 0.0
2017-May-18 08:30N 57°09' W 002°05'0 0.0
2017-May-18 08:00N 57°09' W 002°05'0 0.0
2017-May-18 07:30N 57°09' W 002°05'0 0.0
2017-May-18 07:00N 57°09' W 002°05'0 0.0
2017-May-18 06:30N 57°09' W 002°05'0 0.0
2017-May-18 06:00N 57°09' W 002°05'1 1.5
2017-May-18 05:30N 57°09' W 002°04'611.5
2017-May-18 05:00N 57°13' W 001°57'814.9
2017-May-18 04:27N 57°19' W 001°48'2017.7
2017-May-18 03:20N 57°39' W 001°41'1323.7
2017-May-18 02:47N 57°51' W 001°50'5823.3
2017-May-18 00:18N 58°45' W 002°29'923.0
2017-May-17 23:54N 58°54' W 002°35'821.5
2017-May-17 23:30N 58°60' W 002°46'713.0
2017-May-17 23:00N 58°60' W 002°58'0 0.0
2017-May-17 21:35N 58°60' W 002°58'0 0.7
2017-May-17 21:30N 58°60' W 002°58'714.3
2017-May-17 21:00N 59°00' W 002°45'10 0.5
2017-May-17 00:58N 59°04' W 002°27'612.2
2017-May-17 00:26N 59°00' W 002°37'614.0
2017-May-17 00:00N 59°00' W 002°48'5 2.8
2017-May-16 22:10N 58°60' W 002°58'1 8.0
2017-May-16 22:00N 59°01' W 002°57'1020.1
2017-May-16 21:30N 58°58' W 002°39'7423.1
2017-May-16 18:20N 57°49' W 001°50'722.6
2017-May-16 18:01N 57°42' W 001°45'2321.3
2017-May-16 16:57N 57°20' W 001°48'1022.4
2017-May-16 16:31N 57°12' W 001°59'5 9.4
2017-May-16 16:00N 57°09' W 002°05'0 0.0
2017-May-16 15:28N 57°09' W 002°05'0 0.0
2017-May-16 15:00N 57°09' W 002°05'0 0.0
2017-May-16 14:30N 57°09' W 002°05'0 0.0
2017-May-16 13:30N 57°09' W 002°05'0 0.0
2017-May-16 13:00N 57°09' W 002°05'0 0.0
2017-May-16 12:30N 57°09' W 002°05'0 0.0
2017-May-16 12:00N 57°09' W 002°05'0 0.0
2017-May-16 11:30N 57°09' W 002°05'0 0.0
2017-May-16 11:00N 57°09' W 002°05'  

Dump ship's entire track history